createdAt,value
2023-02-15T00:01:07.764Z,4.87
2023-02-15T00:02:40.364Z,4.84
2023-02-15T00:04:16.626Z,4.84
2023-02-15T00:05:48.722Z,4.84
2023-02-15T00:07:21.117Z,4.85
2023-02-15T00:08:53.412Z,4.84
2023-02-15T00:10:25.444Z,4.83
2023-02-15T00:11:57.486Z,4.83
2023-02-15T00:13:29.457Z,4.81
2023-02-15T00:15:01.671Z,4.79
2023-02-15T00:16:34.274Z,4.75
2023-02-15T00:18:06.452Z,4.73
2023-02-15T00:19:38.648Z,4.72
2023-02-15T00:21:11.372Z,4.70
2023-02-15T00:22:43.381Z,4.70
2023-02-15T00:24:17.208Z,4.68
2023-02-15T00:25:49.195Z,4.67
2023-02-15T00:27:21.234Z,4.62
2023-02-15T00:28:53.708Z,4.61
2023-02-15T00:30:25.773Z,4.60
2023-02-15T00:31:57.944Z,4.56
2023-02-15T00:33:30.027Z,4.55
2023-02-15T00:35:02.060Z,4.54
2023-02-15T00:36:34.476Z,4.51
2023-02-15T00:38:06.405Z,4.48
2023-02-15T00:39:38.466Z,4.49
2023-02-15T00:41:11.541Z,4.43
2023-02-15T00:42:43.547Z,4.46
2023-02-15T00:44:15.866Z,4.42
2023-02-15T00:45:47.962Z,4.39
2023-02-15T00:47:19.993Z,4.40
2023-02-15T00:48:52.248Z,4.38
2023-02-15T00:50:24.251Z,4.38
2023-02-15T00:52:23.906Z,4.39
2023-02-15T00:53:55.862Z,4.35
2023-02-15T00:55:27.835Z,4.32
2023-02-15T00:57:01.511Z,4.31
2023-02-15T00:58:33.524Z,4.30
2023-02-15T01:00:06.598Z,4.28
2023-02-15T01:01:38.883Z,4.23
2023-02-15T01:03:11.711Z,4.19
2023-02-15T01:04:43.856Z,4.20
2023-02-15T01:06:17.219Z,4.19
2023-02-15T01:07:49.136Z,4.18
2023-02-15T01:09:21.049Z,4.13
2023-02-15T01:10:53.101Z,4.11
2023-02-15T01:12:25.065Z,4.13
2023-02-15T01:13:58.420Z,4.12
2023-02-15T01:15:30.417Z,4.10
2023-02-15T01:17:02.372Z,4.08
2023-02-15T01:18:35.061Z,4.08
2023-02-15T01:20:08.084Z,4.05
2023-02-15T01:21:41.819Z,4.03
2023-02-15T01:23:15.199Z,4.03
2023-02-15T01:24:49.842Z,4.02
2023-02-15T01:26:22.261Z,4.00
2023-02-15T01:27:54.247Z,4.01
2023-02-15T01:29:26.453Z,4.01
2023-02-15T01:31:00.349Z,3.99
2023-02-15T01:32:32.526Z,3.96
2023-02-15T01:34:04.467Z,3.96
2023-02-15T01:35:37.833Z,3.96
2023-02-15T01:37:09.812Z,3.96
2023-02-15T01:38:42.529Z,3.96
2023-02-15T01:40:17.013Z,3.94
2023-02-15T01:41:49.745Z,3.89
2023-02-15T01:43:22.811Z,3.89
2023-02-15T01:44:59.732Z,3.89
2023-02-15T01:46:38.164Z,3.86
2023-02-15T01:48:16.107Z,3.84
2023-02-15T01:49:49.045Z,3.86
2023-02-15T01:51:21.544Z,3.88
2023-02-15T01:53:00.496Z,3.84
2023-02-15T01:54:34.192Z,3.83
2023-02-15T01:56:10.244Z,3.81
2023-02-15T01:57:43.571Z,3.80
2023-02-15T01:59:19.177Z,3.80
2023-02-15T02:00:51.287Z,3.79
2023-02-15T02:02:25.553Z,3.78
2023-02-15T02:04:06.260Z,3.75
2023-02-15T02:05:39.308Z,3.75
2023-02-15T02:07:14.324Z,3.74
2023-02-15T02:08:46.392Z,3.72
2023-02-15T02:10:23.607Z,3.73
2023-02-15T02:11:55.811Z,3.72
2023-02-15T02:13:27.927Z,3.73
2023-02-15T02:15:01.940Z,3.73
2023-02-15T02:16:52.665Z,3.74
2023-02-15T02:18:45.921Z,3.72
2023-02-15T02:20:51.591Z,3.69
2023-02-15T02:22:55.801Z,3.67
2023-02-15T02:24:42.615Z,3.69
2023-02-15T02:26:49.533Z,3.64
2023-02-15T02:29:00.391Z,3.63
2023-02-15T02:31:07.272Z,3.63
2023-02-15T02:33:04.010Z,3.59
2023-02-15T02:34:46.705Z,3.57
2023-02-15T02:36:26.302Z,3.58
2023-02-15T02:38:21.534Z,3.55
2023-02-15T02:40:02.640Z,3.55
2023-02-15T02:41:52.859Z,3.54
2023-02-15T02:43:46.585Z,3.52
2023-02-15T02:45:26.956Z,3.52
2023-02-15T02:47:08.481Z,3.50
2023-02-15T02:48:40.541Z,3.48
2023-02-15T02:50:19.464Z,3.48
2023-02-15T02:52:01.754Z,3.45
2023-02-15T02:53:33.872Z,3.43
2023-02-15T02:55:09.810Z,3.41
2023-02-15T02:56:44.979Z,3.39
2023-02-15T02:58:30.517Z,3.35
2023-02-15T03:00:04.782Z,3.35
2023-02-15T03:01:45.494Z,3.35
2023-02-15T03:03:30.139Z,3.32
2023-02-15T03:05:07.431Z,3.30
2023-02-15T03:07:10.620Z,3.29
2023-02-15T03:08:46.380Z,3.24
2023-02-15T03:10:19.612Z,3.24
2023-02-15T03:11:52.116Z,3.25
2023-02-15T03:13:25.564Z,3.22
2023-02-15T03:15:03.510Z,3.22
2023-02-15T03:16:36.576Z,3.19
2023-02-15T03:18:09.663Z,3.17
2023-02-15T03:19:41.696Z,3.18
2023-02-15T03:21:23.311Z,3.17
2023-02-15T03:23:11.961Z,3.15
2023-02-15T03:24:54.520Z,3.16
2023-02-15T03:26:27.667Z,3.14
2023-02-15T03:28:14.928Z,3.15
2023-02-15T03:29:50.136Z,3.19
2023-02-15T03:31:25.024Z,3.20
2023-02-15T03:32:57.961Z,3.17
2023-02-15T03:34:29.847Z,3.22
2023-02-15T03:36:20.509Z,3.18
2023-02-15T03:37:59.602Z,3.18
2023-02-15T03:39:35.240Z,3.17
2023-02-15T03:41:10.716Z,3.16
2023-02-15T03:42:43.106Z,3.12
2023-02-15T03:44:25.370Z,3.07
2023-02-15T03:46:01.795Z,3.09
2023-02-15T03:47:40.465Z,3.04
2023-02-15T03:49:21.442Z,3.02
2023-02-15T03:51:15.126Z,2.98
2023-02-15T03:52:47.189Z,2.97
2023-02-15T03:54:46.293Z,2.94
2023-02-15T03:56:18.338Z,2.90
2023-02-15T03:58:09.015Z,2.88
2023-02-15T03:59:59.749Z,2.86
2023-02-15T04:01:58.367Z,2.88
2023-02-15T04:03:46.254Z,2.82
2023-02-15T04:05:18.405Z,2.79
2023-02-15T04:06:50.532Z,2.80
2023-02-15T04:08:42.549Z,2.79
2023-02-15T04:10:37.908Z,2.78
2023-02-15T04:12:09.961Z,2.75
2023-02-15T04:13:42.039Z,2.76
2023-02-15T04:15:32.936Z,2.75
2023-02-15T04:17:09.015Z,2.72
2023-02-15T04:19:03.172Z,2.72
2023-02-15T04:20:54.047Z,2.72
2023-02-15T04:22:44.895Z,2.67
2023-02-15T04:24:36.221Z,2.67
2023-02-15T04:26:08.272Z,2.66
2023-02-15T04:27:45.131Z,2.66
2023-02-15T04:29:17.191Z,2.63
2023-02-15T04:30:49.241Z,2.64
2023-02-15T04:32:21.356Z,2.65
2023-02-15T04:33:56.079Z,2.66
2023-02-15T04:35:28.149Z,2.67
2023-02-15T04:37:00.287Z,2.64
2023-02-15T04:38:32.295Z,2.63
2023-02-15T04:40:06.104Z,2.60
2023-02-15T04:41:38.226Z,2.59
2023-02-15T04:43:10.324Z,2.58
2023-02-15T04:44:42.419Z,2.57
2023-02-15T04:46:14.466Z,2.58
2023-02-15T04:47:46.669Z,2.54
2023-02-15T04:49:21.792Z,2.57
2023-02-15T04:50:54.054Z,2.54
2023-02-15T04:52:29.185Z,2.53
2023-02-15T04:54:01.371Z,2.51
2023-02-15T04:55:33.642Z,2.50
2023-02-15T04:57:06.898Z,2.50
2023-02-15T04:58:42.231Z,2.49
2023-02-15T05:00:19.036Z,2.48
2023-02-15T05:01:51.590Z,2.48
2023-02-15T05:03:24.200Z,2.46
2023-02-15T05:04:56.519Z,2.45
2023-02-15T05:06:28.856Z,2.44
2023-02-15T05:08:00.905Z,2.44
2023-02-15T05:09:33.066Z,2.43
2023-02-15T05:11:05.307Z,2.44
2023-02-15T05:12:38.962Z,2.43
2023-02-15T05:14:11.184Z,2.42
2023-02-15T05:15:47.387Z,2.41
2023-02-15T05:17:19.511Z,2.41
2023-02-15T05:18:52.996Z,2.42
2023-02-15T05:20:25.253Z,2.45
2023-02-15T05:21:57.540Z,2.43
2023-02-15T05:23:29.724Z,2.45
2023-02-15T05:25:20.271Z,2.43
2023-02-15T05:27:11.094Z,2.42
2023-02-15T05:28:43.216Z,2.39
2023-02-15T05:30:15.459Z,2.40
2023-02-15T05:31:48.618Z,2.40
2023-02-15T05:33:21.257Z,2.39
2023-02-15T05:34:53.253Z,2.38
2023-02-15T05:36:25.529Z,2.34
2023-02-15T05:37:57.546Z,2.33
2023-02-15T05:39:29.683Z,2.30
2023-02-15T05:41:01.760Z,2.26
2023-02-15T05:42:33.957Z,2.26
2023-02-15T05:44:06.163Z,2.27
2023-02-15T05:45:43.422Z,2.27
2023-02-15T05:47:31.425Z,2.30
2023-02-15T05:49:05.761Z,2.28
2023-02-15T05:50:37.816Z,2.26
2023-02-15T05:52:09.845Z,2.26
2023-02-15T05:53:42.011Z,2.25
2023-02-15T05:55:14.018Z,2.24
2023-02-15T05:56:46.068Z,2.25
2023-02-15T05:58:18.136Z,2.27
2023-02-15T05:59:50.130Z,2.27
2023-02-15T06:01:25.143Z,2.29
2023-02-15T06:02:57.119Z,2.32
2023-02-15T06:04:29.212Z,2.32
2023-02-15T06:06:01.662Z,2.30
2023-02-15T06:07:34.712Z,2.29
2023-02-15T06:09:06.735Z,2.30
2023-02-15T06:10:41.457Z,2.22
2023-02-15T06:12:19.288Z,2.22
2023-02-15T06:13:51.572Z,2.17
2023-02-15T06:15:26.418Z,2.15
2023-02-15T06:17:01.786Z,2.14
2023-02-15T06:18:34.577Z,2.11
2023-02-15T06:20:07.503Z,2.13
2023-02-15T06:21:39.818Z,2.15
2023-02-15T06:23:14.764Z,2.11
2023-02-15T06:24:50.308Z,2.11
2023-02-15T06:26:25.136Z,2.09
2023-02-15T06:27:57.393Z,2.08
2023-02-15T06:29:29.658Z,2.07
2023-02-15T06:31:02.044Z,2.08
2023-02-15T06:32:34.463Z,2.07
2023-02-15T06:34:07.373Z,2.05
2023-02-15T06:35:41.955Z,2.03
2023-02-15T06:37:17.469Z,2.04
2023-02-15T06:38:52.503Z,2.01
2023-02-15T06:40:30.554Z,2.01
2023-02-15T06:42:03.847Z,1.99
2023-02-15T06:43:36.207Z,1.99
2023-02-15T06:45:09.081Z,2.00
2023-02-15T06:46:41.600Z,2.01
2023-02-15T06:48:14.106Z,2.01
2023-02-15T06:49:46.353Z,2.01
2023-02-15T06:51:19.006Z,2.00
2023-02-15T06:52:51.313Z,1.99
2023-02-15T06:54:23.773Z,1.99
2023-02-15T06:56:07.801Z,1.98
2023-02-15T06:57:40.446Z,2.00
2023-02-15T06:59:16.340Z,2.00
2023-02-15T07:00:52.891Z,1.99
2023-02-15T07:02:25.584Z,1.98
2023-02-15T07:04:02.356Z,1.98
2023-02-15T07:05:39.930Z,1.99
2023-02-15T07:07:15.805Z,1.99
2023-02-15T07:08:48.551Z,1.99
2023-02-15T07:10:23.980Z,2.00
2023-02-15T07:12:14.901Z,2.02
2023-02-15T07:13:49.251Z,2.01
2023-02-15T07:15:26.992Z,2.02
2023-02-15T07:17:18.324Z,2.02
2023-02-15T07:19:01.414Z,2.04
2023-02-15T07:20:37.638Z,2.04
2023-02-15T07:22:10.151Z,2.05
2023-02-15T07:23:42.518Z,2.03
2023-02-15T07:25:19.207Z,2.03
2023-02-15T07:26:55.161Z,2.04
2023-02-15T07:28:41.811Z,2.06
2023-02-15T07:30:17.120Z,2.06
2023-02-15T07:31:52.492Z,2.05
2023-02-15T07:33:25.109Z,2.08
2023-02-15T07:34:59.626Z,2.10
2023-02-15T07:36:38.665Z,2.13
2023-02-15T07:38:13.263Z,2.14
2023-02-15T07:39:45.710Z,2.18
2023-02-15T07:41:18.292Z,2.19
2023-02-15T07:42:54.385Z,2.23
2023-02-15T07:44:28.987Z,2.27
2023-02-15T07:46:15.635Z,2.30
2023-02-15T07:47:48.613Z,2.32
2023-02-15T07:49:23.392Z,2.32
2023-02-15T07:51:06.180Z,2.34
2023-02-15T07:52:51.982Z,2.35
2023-02-15T07:54:24.422Z,2.34
2023-02-15T07:56:01.277Z,2.35
2023-02-15T07:57:46.384Z,2.37
2023-02-15T07:59:21.330Z,2.37
2023-02-15T08:01:01.967Z,2.38
2023-02-15T08:02:35.509Z,2.38
2023-02-15T08:04:09.135Z,2.40
2023-02-15T08:05:42.625Z,2.44
2023-02-15T08:07:24.397Z,2.45
2023-02-15T08:08:57.091Z,2.49
2023-02-15T08:10:50.863Z,2.52
2023-02-15T08:12:23.208Z,2.57
2023-02-15T08:16:17.768Z,2.63
2023-02-15T08:17:50.220Z,2.66
2023-02-15T08:19:26.956Z,2.70
2023-02-15T08:20:59.233Z,2.72
2023-02-15T08:22:33.723Z,2.75
2023-02-15T08:24:07.465Z,2.78
2023-02-15T08:25:39.807Z,2.83
2023-02-15T08:27:12.782Z,2.87
2023-02-15T08:28:45.671Z,2.93
2023-02-15T08:30:23.250Z,2.95
2023-02-15T08:32:03.546Z,3.00
2023-02-15T08:33:42.410Z,3.06
2023-02-15T08:35:14.879Z,3.11
2023-02-15T08:36:49.103Z,3.15
2023-02-15T08:38:22.003Z,3.22
2023-02-15T08:39:56.617Z,3.26
2023-02-15T08:41:31.604Z,3.25
2023-02-15T08:43:03.834Z,3.29
2023-02-15T08:44:36.145Z,3.33
2023-02-15T08:46:10.187Z,3.39
2023-02-15T08:47:51.300Z,3.49
2023-02-15T08:49:35.055Z,3.58
2023-02-15T08:51:15.405Z,3.63
2023-02-15T08:52:47.552Z,3.73
2023-02-15T08:54:22.005Z,3.81
2023-02-15T08:55:58.564Z,3.96
2023-02-15T08:57:33.793Z,4.08
2023-02-15T08:59:25.384Z,4.18
2023-02-15T09:01:01.911Z,4.24
2023-02-15T09:02:34.789Z,4.40
2023-02-15T09:04:12.446Z,4.49
2023-02-15T09:05:47.077Z,4.56
2023-02-15T09:07:20.119Z,4.69
2023-02-15T09:08:55.931Z,4.85
2023-02-15T09:10:31.504Z,5.02
2023-02-15T09:12:03.874Z,5.19
2023-02-15T09:13:36.604Z,5.35
2023-02-15T09:15:11.092Z,5.52
2023-02-15T09:16:53.386Z,5.68
2023-02-15T09:18:25.795Z,5.83
2023-02-15T09:20:14.964Z,5.91
2023-02-15T09:21:51.017Z,6.08
2023-02-15T09:23:27.822Z,6.24
2023-02-15T09:25:14.839Z,6.37
2023-02-15T09:27:05.567Z,6.40
2023-02-15T09:29:59.208Z,6.50
2023-02-15T09:31:54.379Z,6.64
2023-02-15T09:33:27.266Z,6.78
2023-02-15T09:34:59.541Z,6.89
2023-02-15T09:36:41.059Z,7.00
2023-02-15T09:38:13.428Z,7.19
2023-02-15T09:39:47.273Z,7.22
2023-02-15T09:41:46.304Z,7.22
2023-02-15T09:44:04.711Z,7.22
2023-02-15T09:45:57.430Z,7.20
2023-02-15T09:47:56.296Z,7.32
2023-02-15T09:49:50.732Z,7.32
2023-02-15T09:51:22.746Z,7.21
2023-02-15T09:53:38.112Z,7.07
2023-02-15T09:55:48.326Z,7.01
2023-02-15T09:57:32.315Z,7.11
2023-02-15T09:59:22.860Z,7.12
2023-02-15T10:01:15.193Z,7.27
2023-02-15T10:03:09.446Z,7.57
2023-02-15T10:05:02.002Z,7.88
2023-02-15T10:06:49.741Z,8.02
2023-02-15T10:09:00.538Z,8.29
2023-02-15T10:10:54.474Z,8.57
2023-02-15T10:12:52.161Z,8.49
2023-02-15T10:14:55.557Z,8.52
2023-02-15T10:17:00.352Z,8.38
2023-02-15T10:18:44.628Z,8.37
2023-02-15T10:23:02.155Z,8.41
2023-02-15T10:25:18.194Z,8.46
2023-02-15T10:26:50.833Z,8.54
2023-02-15T10:28:32.708Z,8.64
2023-02-15T10:30:11.812Z,8.75
2023-02-15T10:31:50.670Z,8.85
2023-02-15T10:33:42.680Z,8.95
2023-02-15T10:35:30.407Z,9.04
2023-02-15T10:37:39.697Z,9.10
2023-02-15T10:39:44.838Z,9.30
2023-02-15T10:41:31.766Z,9.45
2023-02-15T10:43:12.224Z,9.59
2023-02-15T10:45:29.814Z,9.72
2023-02-15T10:47:44.628Z,9.82
2023-02-15T10:49:19.661Z,9.89
2023-02-15T10:50:57.123Z,10.10
2023-02-15T10:52:50.477Z,10.23
2023-02-15T10:54:44.881Z,10.40
2023-02-15T10:56:28.444Z,10.48
2023-02-15T10:58:47.243Z,10.54
2023-02-15T11:00:33.470Z,10.59
2023-02-15T11:02:08.268Z,10.79
2023-02-15T11:03:55.839Z,10.94
2023-02-15T11:05:54.350Z,10.92
2023-02-15T11:07:40.482Z,11.18
2023-02-15T11:09:19.385Z,11.39
2023-02-15T11:10:55.540Z,11.34
2023-02-15T11:12:29.870Z,11.30
2023-02-15T11:14:14.491Z,11.30
2023-02-15T11:16:02.856Z,11.19
2023-02-15T11:17:58.654Z,11.31
2023-02-15T11:19:42.216Z,11.48
2023-02-15T11:21:33.798Z,11.62
2023-02-15T11:23:17.342Z,11.75
2023-02-15T11:24:55.001Z,12.03
2023-02-15T11:27:13.137Z,12.13
2023-02-15T11:29:06.225Z,12.18
2023-02-15T11:30:52.907Z,12.26
2023-02-15T11:32:31.612Z,12.21
2023-02-15T11:34:12.629Z,12.26
2023-02-15T11:35:52.450Z,12.23
2023-02-15T11:37:41.782Z,12.28
2023-02-15T11:39:34.838Z,12.47
2023-02-15T11:41:35.819Z,12.52
2023-02-15T11:43:15.127Z,12.47
2023-02-15T11:44:56.089Z,12.46
2023-02-15T11:46:30.322Z,12.51
2023-02-15T11:48:11.259Z,12.62
2023-02-15T11:49:44.137Z,12.69
2023-02-15T11:51:18.354Z,12.89
2023-02-15T11:52:56.037Z,12.96
2023-02-15T11:54:34.304Z,13.02
2023-02-15T11:56:22.657Z,13.04
2023-02-15T11:58:16.246Z,13.04
2023-02-15T11:59:56.718Z,13.15
2023-02-15T12:01:48.246Z,13.17
2023-02-15T12:03:24.706Z,13.30
2023-02-15T12:05:12.352Z,13.37
2023-02-15T12:06:49.313Z,13.43
2023-02-15T12:08:22.476Z,13.56
2023-02-15T12:10:15.427Z,13.57
2023-02-15T12:11:47.400Z,13.69
2023-02-15T12:13:20.893Z,13.74
2023-02-15T12:14:55.288Z,13.82
2023-02-15T12:16:29.255Z,13.88
2023-02-15T12:18:01.322Z,13.92
2023-02-15T12:19:39.289Z,13.94
2023-02-15T12:21:20.800Z,13.92
2023-02-15T12:23:04.939Z,13.90
2023-02-15T12:24:46.359Z,13.89
2023-02-15T12:26:46.896Z,14.02
2023-02-15T12:28:28.449Z,14.03
2023-02-15T12:30:05.601Z,13.99
2023-02-15T12:31:40.990Z,13.96
2023-02-15T12:33:36.250Z,14.04
2023-02-15T12:35:10.700Z,14.06
2023-02-15T12:37:00.672Z,14.14
2023-02-15T12:38:42.872Z,14.09
2023-02-15T12:40:33.726Z,14.17
2023-02-15T12:42:25.569Z,14.15
2023-02-15T12:44:14.302Z,14.26
2023-02-15T12:45:47.637Z,14.29
2023-02-15T12:47:21.066Z,14.33
2023-02-15T12:49:22.391Z,14.41
2023-02-15T12:51:09.383Z,14.44
2023-02-15T12:52:41.653Z,14.49
2023-02-15T12:54:26.076Z,14.55
2023-02-15T12:56:06.842Z,14.56
2023-02-15T12:57:39.109Z,14.61
2023-02-15T12:59:15.992Z,14.66
2023-02-15T13:00:48.811Z,14.69
2023-02-15T13:02:42.286Z,14.66
2023-02-15T13:04:32.680Z,14.73
2023-02-15T13:06:24.430Z,14.74
2023-02-15T13:08:22.384Z,14.74
2023-02-15T13:10:07.733Z,14.78
2023-02-15T13:11:40.815Z,14.76
2023-02-15T13:13:26.221Z,14.82
2023-02-15T13:14:58.837Z,14.87
2023-02-15T13:16:41.088Z,14.86
2023-02-15T13:18:19.457Z,14.91
2023-02-15T13:19:56.440Z,14.94
2023-02-15T13:21:39.711Z,14.91
2023-02-15T13:23:36.256Z,14.97
2023-02-15T13:25:14.817Z,14.95
2023-02-15T13:26:59.074Z,14.99
2023-02-15T13:28:58.789Z,15.06
2023-02-15T13:30:53.096Z,15.00
2023-02-15T13:32:43.234Z,15.01
2023-02-15T13:34:36.494Z,14.99
2023-02-15T13:36:34.891Z,15.00
2023-02-15T13:38:18.544Z,15.08
2023-02-15T13:40:04.381Z,15.09
2023-02-15T13:42:07.492Z,15.08
2023-02-15T13:44:11.169Z,15.08
2023-02-15T13:46:07.942Z,15.05
2023-02-15T13:48:05.920Z,14.97
2023-02-15T13:49:59.230Z,14.95
2023-02-15T13:51:48.488Z,14.90
2023-02-15T13:53:42.989Z,14.86
2023-02-15T13:55:32.843Z,14.83
2023-02-15T13:57:39.461Z,14.84
2023-02-15T13:59:26.526Z,14.81
2023-02-15T14:01:41.543Z,14.72
2023-02-15T14:03:47.577Z,14.70
2023-02-15T14:06:05.340Z,14.66
2023-02-15T14:07:47.843Z,14.66
2023-02-15T14:09:31.344Z,14.67
2023-02-15T14:11:39.361Z,14.80
2023-02-15T14:13:44.102Z,14.84
2023-02-15T14:15:41.669Z,14.86
2023-02-15T14:18:20.056Z,14.94
2023-02-15T14:20:07.304Z,14.92
2023-02-15T14:21:50.026Z,14.90
2023-02-15T14:23:54.805Z,14.83
2023-02-15T14:25:40.961Z,14.80
2023-02-15T14:28:05.348Z,14.85
2023-02-15T14:30:11.813Z,14.83
2023-02-15T14:31:54.793Z,14.80
2023-02-15T14:33:36.983Z,14.77
2023-02-15T14:35:22.855Z,14.74
2023-02-15T14:36:59.300Z,14.78
2023-02-15T14:38:33.930Z,14.78
2023-02-15T14:41:06.348Z,14.81
2023-02-15T14:47:39.172Z,14.87
2023-02-15T14:59:35.365Z,14.79
2023-02-15T15:57:43.199Z,13.61
